»·PEaware :: N8408E KSBA-KBUR

N8408E :: KSBA-KBUR

FLIGHT INFORMATION

Flight Status: Arrived
Operator: Privately registered:
United States
More flights under this callsign
Pilot: John H. (22960)
Aircraft: CESSNA 172 SKYHAWK
(C172)
More flights by this aircraft type
Origin: KSBA Santa Barbara Mun
United States
Destination: KBUR Bob Hope-Burbank
United States
More flights between these airports :: More routes between these airports
Route: +
File this flight plan on PilotEdge
Remarks: CAT7
Altitude:
(Current/Filed)
6,500ft
Speed:
(Current/Filed)
115kts
Departed: 03-Feb-19 11:57 AM
Arrived: 03-Feb-19 12:42 PM
Distance/Time
Traveled:
75nm/0:45
Distance/Time
To Go:
Arrived

Flight Plot

Page will automatically refresh every two minutes.


Map Options




Map Legend


Flown Route
Filed Route
Departure Airport
Arrival Airport
Navaid (VOR, NDB)
Fix

Horizontal Profiles

Position Reports

Time Latitude Longitude Heading Altitude Ground
Speed
03-Feb-19 11:49 34.432600 -119.835129 198 14ft 0kts
03-Feb-19 11:50 34.432600 -119.835129 198 14ft 0kts
03-Feb-19 11:51 34.432600 -119.835129 198 14ft 0kts
03-Feb-19 11:52 34.432600 -119.835129 198 14ft 0kts
03-Feb-19 11:53 34.432413 -119.835205 199 14ft 6kts
03-Feb-19 11:54 34.430758 -119.839607 245 14ft 0kts
03-Feb-19 11:55 34.430265 -119.840212 168 14ft 9kts
03-Feb-19 11:56 34.413583 -119.834036 159 639ft 73kts
03-Feb-19 11:57 34.394094 -119.826968 161 1518ft 74kts
03-Feb-19 11:58 34.370582 -119.813009 97 1920ft 107kts
03-Feb-19 11:59 34.368266 -119.777631 92 2582ft 106kts
03-Feb-19 12:00 34.369453 -119.747289 78 3556ft 83kts
03-Feb-19 12:01 34.377273 -119.723139 62 4360ft 76kts
03-Feb-19 12:02 34.386510 -119.699664 67 5088ft 77kts
03-Feb-19 12:03 34.394853 -119.675399 64 5792ft 78kts
03-Feb-19 12:04 34.395101 -119.649568 99 6478ft 77kts
03-Feb-19 12:05 34.391902 -119.623042 102 7098ft 81kts
03-Feb-19 12:06 34.389159 -119.595965 101 7637ft 93kts
03-Feb-19 12:07 34.383352 -119.560099 98 7679ft 113kts
03-Feb-19 12:08 34.377835 -119.522523 101 7705ft 112kts
03-Feb-19 12:09 34.372219 -119.485163 99 7666ft 112kts
03-Feb-19 12:10 34.366840 -119.447607 100 7632ft 112kts
03-Feb-19 12:11 34.361362 -119.410334 98 7602ft 112kts
03-Feb-19 12:12 34.355643 -119.373098 99 7578ft 111kts
03-Feb-19 12:13 34.349643 -119.335861 101 7533ft 112kts
03-Feb-19 12:14 34.343636 -119.298694 101 7504ft 113kts
03-Feb-19 12:15 34.338193 -119.261431 99 7483ft 112kts
03-Feb-19 12:16 34.332707 -119.224272 97 7471ft 111kts
03-Feb-19 12:17 34.328094 -119.187628 100 7546ft 110kts
03-Feb-19 12:18 34.322313 -119.150490 100 7588ft 111kts
03-Feb-19 12:19 34.316777 -119.112868 100 7586ft 113kts
03-Feb-19 12:20 34.311075 -119.075231 101 7596ft 114kts
03-Feb-19 12:21 34.304661 -119.037614 99 7589ft 115kts
03-Feb-19 12:22 34.298822 -118.999519 100 7564ft 114kts
03-Feb-19 12:23 34.291970 -118.961859 100 7529ft 113kts
03-Feb-19 12:24 34.286219 -118.924337 100 7522ft 113kts
03-Feb-19 12:25 34.280776 -118.886860 96 7525ft 112kts
03-Feb-19 12:26 34.277262 -118.849177 98 7462ft 110kts
03-Feb-19 12:27 34.271141 -118.811693 100 6756ft 112kts
03-Feb-19 12:28 34.265028 -118.774503 101 6098ft 112kts
03-Feb-19 12:29 34.258999 -118.737795 100 5476ft 111kts
03-Feb-19 12:30 34.253050 -118.701361 101 4875ft 110kts
03-Feb-19 12:31 34.247342 -118.665220 100 4297ft 109kts
03-Feb-19 12:32 34.242255 -118.629615 101 4138ft 107kts
03-Feb-19 12:33 34.237021 -118.594630 99 4077ft 107kts
03-Feb-19 12:34 34.232725 -118.558813 87 3817ft 108kts
03-Feb-19 12:35 34.232105 -118.522735 90 3587ft 107kts
03-Feb-19 12:36 34.231413 -118.487002 94 3417ft 103kts
03-Feb-19 12:37 34.229115 -118.451217 93 2953ft 106kts
03-Feb-19 12:38 34.228233 -118.415465 91 2531ft 106kts
03-Feb-19 12:39 34.227230 -118.380325 96 2143ft 105kts
03-Feb-19 12:40 34.208709 -118.359430 165 789ft 112kts
03-Feb-19 12:41 34.196777 -118.357125 268 707ft 0kts
03-Feb-19 12:42 34.196778 -118.357132 278 707ft 1kts

Navigation Log

Ident Type
Flight plan parsing failed, navigation log unavailable